createdAt,value
2022-10-30T00:02:23.851Z,0
2022-10-30T00:08:43.737Z,0
2022-10-30T00:15:06.797Z,0
2022-10-30T00:21:26.774Z,0
2022-10-30T00:27:49.794Z,0
2022-10-30T00:34:09.827Z,0
2022-10-30T00:40:32.727Z,0
2022-10-30T00:46:52.797Z,0
2022-10-30T00:53:15.776Z,0
2022-10-30T00:59:35.764Z,0
2022-10-30T01:05:58.804Z,0
2022-10-30T01:12:18.774Z,0
2022-10-30T01:18:41.793Z,0
2022-10-30T01:25:01.782Z,0
2022-10-30T01:31:24.795Z,0
2022-10-30T01:37:44.763Z,0
2022-10-30T01:44:07.749Z,0
2022-10-30T01:50:27.802Z,0
2022-10-30T01:56:50.781Z,0
2022-10-30T02:03:10.738Z,0
2022-10-30T02:09:33.890Z,0
2022-10-30T02:15:53.729Z,0
2022-10-30T02:22:17.022Z,0
2022-10-30T02:28:36.791Z,0
2022-10-30T02:34:59.733Z,0
2022-10-30T02:41:19.765Z,0
2022-10-30T02:47:42.757Z,0
2022-10-30T02:54:02.743Z,0
2022-10-30T03:00:25.762Z,0
2022-10-30T03:06:45.776Z,0
2022-10-30T03:13:08.772Z,0
2022-10-30T03:19:28.746Z,0
2022-10-30T03:25:51.827Z,0
2022-10-30T03:32:11.793Z,0
2022-10-30T03:38:34.733Z,0
2022-10-30T04:01:40.425Z,0
2022-10-30T04:07:59.744Z,0
2022-10-30T04:14:22.803Z,0
2022-10-30T04:20:42.769Z,0
2022-10-30T04:27:05.811Z,0
2022-10-30T04:33:25.762Z,0
2022-10-30T04:39:48.741Z,0
2022-10-30T04:46:08.803Z,0
2022-10-30T04:52:31.750Z,0
2022-10-30T04:58:51.793Z,0
2022-10-30T05:05:14.767Z,0
2022-10-30T05:11:34.781Z,0
2022-10-30T05:17:58.094Z,0
2022-10-30T05:24:17.731Z,0
2022-10-30T05:30:40.797Z,0
2022-10-30T05:37:00.811Z,0
2022-10-30T05:43:23.771Z,0
2022-10-30T05:49:43.821Z,0
2022-10-30T05:56:06.776Z,0
2022-10-30T06:02:26.845Z,0
2022-10-30T06:08:49.783Z,0
2022-10-30T06:15:09.781Z,0
2022-10-30T06:21:32.848Z,0
2022-10-30T06:27:52.748Z,0
2022-10-30T06:34:15.822Z,0
2022-10-30T06:40:35.829Z,5.62
2022-10-30T06:46:58.785Z,5.62
2022-10-30T06:53:18.823Z,5.62
2022-10-30T06:59:41.744Z,5.62
2022-10-30T07:06:01.761Z,11.25
2022-10-30T07:12:24.841Z,11.25
2022-10-30T07:18:44.767Z,16.88
2022-10-30T07:25:07.782Z,16.88
2022-10-30T07:31:34.731Z,16.88
2022-10-30T07:37:50.788Z,16.88
2022-10-30T07:44:10.767Z,22.5
2022-10-30T07:50:33.784Z,22.5
2022-10-30T07:56:53.785Z,22.5
2022-10-30T08:03:16.774Z,22.5
2022-10-30T08:09:36.777Z,28.12
2022-10-30T08:15:59.791Z,28.12
2022-10-30T08:22:19.764Z,28.12
2022-10-30T08:28:42.804Z,33.75
2022-10-30T08:35:02.752Z,33.75
2022-10-30T08:41:25.824Z,33.75
2022-10-30T08:47:45.969Z,33.75
2022-10-30T08:54:08.738Z,39.38
2022-10-30T09:00:28.770Z,39.38
2022-10-30T09:16:56.744Z,45
2022-10-30T09:23:16.743Z,50.62
2022-10-30T09:29:39.740Z,45
2022-10-30T09:35:59.799Z,56.25
2022-10-30T09:42:22.770Z,56.25
2022-10-30T09:48:42.767Z,56.25
2022-10-30T09:55:05.763Z,56.25
2022-10-30T10:01:25.816Z,56.25
2022-10-30T10:07:48.806Z,67.5
2022-10-30T10:14:08.750Z,61.88
2022-10-30T10:20:31.779Z,67.5
2022-10-30T10:26:51.735Z,73.12
2022-10-30T10:33:14.792Z,73.12
2022-10-30T10:39:34.743Z,78.75
2022-10-30T10:45:57.732Z,78.75
2022-10-30T10:52:17.817Z,78.75
2022-10-30T10:58:40.735Z,84.38
2022-10-30T11:05:00.723Z,84.38
2022-10-30T11:11:23.780Z,84.38
2022-10-30T11:17:43.733Z,90
2022-10-30T11:24:06.781Z,95.62
2022-10-30T11:30:26.773Z,95.62
2022-10-30T11:36:49.762Z,84.38
2022-10-30T11:43:09.768Z,90
2022-10-30T11:49:32.780Z,84.38
2022-10-30T11:55:52.765Z,95.62
2022-10-30T12:02:15.884Z,101.25
2022-10-30T12:08:35.752Z,95.62
2022-10-30T12:14:58.778Z,95.62
2022-10-30T12:21:18.738Z,95.62
2022-10-30T12:27:41.795Z,95.62
2022-10-30T12:34:01.776Z,78.75
2022-10-30T12:40:24.734Z,73.12
2022-10-30T12:46:44.792Z,61.88
2022-10-30T12:53:07.738Z,61.88
2022-10-30T12:59:27.792Z,56.25
2022-10-30T13:12:10.736Z,56.25
2022-10-30T13:18:33.777Z,50.62
2022-10-30T13:24:54.993Z,45
2022-10-30T13:31:16.775Z,39.38
2022-10-30T13:37:36.755Z,39.38
2022-10-30T13:43:59.757Z,39.38
2022-10-30T13:50:19.774Z,39.38
2022-10-30T13:56:42.743Z,39.38
2022-10-30T14:03:03.252Z,33.75
2022-10-30T14:09:25.752Z,28.12
2022-10-30T14:15:45.756Z,28.12
2022-10-30T14:22:08.813Z,28.12
2022-10-30T14:28:28.737Z,28.12
2022-10-30T14:34:51.753Z,28.12
2022-10-30T14:41:12.879Z,22.5
2022-10-30T14:47:34.734Z,22.5
2022-10-30T15:05:03.849Z,11.25
2022-10-30T15:11:23.731Z,11.25
2022-10-30T15:17:43.794Z,11.25
2022-10-30T15:24:06.780Z,11.25
2022-10-30T15:30:26.724Z,11.25
2022-10-30T15:36:49.795Z,11.25
2022-10-30T15:43:09.751Z,5.62
2022-10-30T15:49:32.734Z,5.62
2022-10-30T15:55:52.787Z,5.62
2022-10-30T16:02:15.939Z,0
2022-10-30T16:08:35.929Z,0
2022-10-30T16:14:58.754Z,0
2022-10-30T16:21:18.760Z,0
2022-10-30T16:27:41.781Z,0
2022-10-30T16:34:01.735Z,0
2022-10-30T16:40:24.809Z,0
2022-10-30T16:46:44.735Z,0
2022-10-30T16:53:07.751Z,0
2022-10-30T16:59:27.787Z,0
2022-10-30T17:05:50.732Z,0
2022-10-30T17:12:10.780Z,0
2022-10-30T17:18:33.772Z,0
2022-10-30T17:24:53.799Z,0
2022-10-30T17:31:16.765Z,0
2022-10-30T17:37:36.756Z,0
2022-10-30T17:43:59.771Z,0
2022-10-30T17:50:19.735Z,0
2022-10-30T17:56:42.764Z,0
2022-10-30T18:03:03.078Z,0
2022-10-30T18:09:25.719Z,0
2022-10-30T18:15:45.803Z,0
2022-10-30T18:22:08.725Z,0
2022-10-30T18:28:28.730Z,0
2022-10-30T18:34:52.060Z,0
2022-10-30T18:41:11.747Z,0
2022-10-30T18:47:34.831Z,0
2022-10-30T18:53:54.757Z,0
2022-10-30T19:00:17.799Z,0
2022-10-30T19:06:37.731Z,0
2022-10-30T19:13:16.682Z,0
2022-10-30T19:19:20.772Z,0
2022-10-30T19:25:43.730Z,0
2022-10-30T19:32:03.789Z,0
2022-10-30T19:38:26.742Z,0
2022-10-30T19:44:46.779Z,0
2022-10-30T19:51:09.944Z,0
2022-10-30T19:57:29.774Z,0
2022-10-30T20:03:52.776Z,0
2022-10-30T20:10:12.825Z,0
2022-10-30T20:25:28.954Z,0
2022-10-30T20:31:48.738Z,0
2022-10-30T20:38:11.814Z,0
2022-10-30T20:44:32.088Z,0
2022-10-30T20:50:54.811Z,0
2022-10-30T20:57:14.767Z,0
2022-10-30T21:03:37.889Z,0
2022-10-30T21:09:57.800Z,0
2022-10-30T21:16:20.756Z,0
2022-10-30T21:22:40.769Z,0
2022-10-30T21:29:03.784Z,0
2022-10-30T21:35:23.734Z,0
2022-10-30T21:41:46.795Z,0
2022-10-30T21:48:06.753Z,0
2022-10-30T21:54:29.762Z,0
2022-10-30T22:20:00.789Z,0
2022-10-30T22:26:20.770Z,0
2022-10-30T22:32:43.780Z,0
2022-10-30T22:39:03.766Z,0
2022-10-30T22:45:26.749Z,0
2022-10-30T22:51:46.825Z,0
2022-10-30T22:58:09.783Z,0
2022-10-30T23:04:29.792Z,0
2022-10-30T23:10:52.753Z,0
2022-10-30T23:17:12.877Z,0
2022-10-30T23:23:35.751Z,0
2022-10-30T23:29:55.763Z,0
2022-10-30T23:36:18.799Z,0
2022-10-30T23:42:38.731Z,0
2022-10-30T23:49:01.793Z,0
2022-10-30T23:55:21.758Z,0
